Terminal Aerodrome Forecast
Issued by NWS Dodge City, KS

Home | Current Version | Previous Version | Graphics & Text | Print | Product List | Glossary Off
Versions: 1 2 3 4 5 6 7 8 9 10 11 12 13 14 15 16 17 18 19 20 21 22 23 24 25 26 27 28 29 30 31 32 33 34 35 36 37 38 39 40 41 42 43 44 45 46 47 48 49 50

000
FTUS43 KDDC 311246 AAE
TAFDDC
TAF AMD
KDDC 311246Z 3113/0112 VRB03KT 3/4SM BR VCSH OVC001
      TEMPO 3113/3114 1/4SM FG
     FM311500 02004KT 3SM BR VCTS OVC015CB
     FM311700 03006KT P6SM VCSH OVC045
     FM312000 06008KT P6SM OVC040
      TEMPO 3120/3122 2SM +TSRA OVC025CB
     FM010500 06006KT P6SM OVC030
      TEMPO 0105/0106 4SM -TSRA OVC015CB
     FM011000 05006KT P6SM OVC008=

USA.gov is the U.S. government's official web portal to all federal, state and local government web resources and services.